BSC659 EDDH-EDDV
Flight info
| Callsign | BSC659 |
|---|---|
| Flight time | 0h 23m |
| Altitude | 21000 |
| Route | IDEKO7G/33 IDEKO N850 NIE |
| Aircraft | B461/M-SDFGIRWY/LB1 |
Departure
| Time | 2026-05-07 21:27 |
|---|---|
| Airport | Hamburg Helmut Schmidt Airport (EDDH) |
Arrival
| Time | 2026-05-07 21:51 |
|---|---|
| Airport | Hannover Airport (EDDV) |
| Time | Latitude | Longitude | Altitude | Speed | Heading |
|---|---|---|---|---|---|
| 2026-05-07 21:07 | 53.62736 | 10.00297 | 43 ft | 0 kts | 61° |
| 2026-05-07 21:09 | 53.62735 | 10.00297 | 43 ft | 0 kts | 61° |
| 2026-05-07 21:14 | 53.62735 | 10.00295 | 43 ft | 1 kts | 61° |
| 2026-05-07 21:15 | 53.62727 | 10.00271 | 39 ft | 3 kts | 63° |
| 2026-05-07 21:15 | 53.62719 | 10.00245 | 40 ft | 2 kts | 63° |
| 2026-05-07 21:15 | 53.62714 | 10.00215 | 40 ft | 3 kts | 91° |
| 2026-05-07 21:15 | 53.62720 | 10.00186 | 41 ft | 3 kts | 132° |
| 2026-05-07 21:16 | 53.62735 | 10.00167 | 40 ft | 2 kts | 152° |
| 2026-05-07 21:16 | 53.62743 | 10.00160 | 39 ft | 1 kts | 153° |
| 2026-05-07 21:16 | 53.62744 | 10.00159 | 39 ft | 0 kts | 153° |
| 2026-05-07 21:21 | 53.62726 | 10.00174 | 40 ft | 7 kts | 153° |
| 2026-05-07 21:21 | 53.62659 | 10.00231 | 42 ft | 14 kts | 153° |
| 2026-05-07 21:21 | 53.62576 | 10.00223 | 40 ft | 12 kts | 235° |
| 2026-05-07 21:21 | 53.62566 | 10.00193 | 42 ft | 0 kts | 245° |
| 2026-05-07 21:22 | 53.62565 | 10.00187 | 42 ft | 3 kts | 245° |
| 2026-05-07 21:23 | 53.62544 | 10.00093 | 42 ft | 14 kts | 265° |
| 2026-05-07 21:23 | 53.62620 | 9.99954 | 43 ft | 18 kts | 332° |
| 2026-05-07 21:23 | 53.62631 | 9.99944 | 43 ft | 0 kts | 333° |
| 2026-05-07 21:26 | 53.62659 | 9.99921 | 43 ft | 27 kts | 333° |
| 2026-05-07 21:27 | 53.63080 | 9.99555 | 48 ft | 105 kts | 332° |
| 2026-05-07 21:27 | 53.63890 | 9.98869 | 146 ft | 150 kts | 334° |
| 2026-05-07 21:27 | 53.64918 | 9.97979 | 401 ft | 184 kts | 335° |
| 2026-05-07 21:27 | 53.66180 | 9.96946 | 872 ft | 216 kts | 337° |
| 2026-05-07 21:28 | 53.67645 | 9.95893 | 1612 ft | 241 kts | 337° |
| 2026-05-07 21:28 | 53.69202 | 9.94565 | 2503 ft | 259 kts | 334° |
| 2026-05-07 21:28 | 53.70789 | 9.92994 | 3485 ft | 272 kts | 320° |
| 2026-05-07 21:28 | 53.71949 | 9.90378 | 4359 ft | 290 kts | 296° |
| 2026-05-07 21:29 | 53.72638 | 9.87047 | 4830 ft | 314 kts | 283° |
| 2026-05-07 21:29 | 53.72892 | 9.83246 | 4974 ft | 327 kts | 266° |
| 2026-05-07 21:29 | 53.72359 | 9.79709 | 5001 ft | 307 kts | 242° |
| 2026-05-07 21:29 | 53.71043 | 9.76904 | 5007 ft | 302 kts | 217° |
| 2026-05-07 21:30 | 53.69225 | 9.75322 | 5004 ft | 299 kts | 193° |
| 2026-05-07 21:30 | 53.67177 | 9.75154 | 5008 ft | 295 kts | 168° |
| 2026-05-07 21:30 | 53.65259 | 9.76304 | 5034 ft | 292 kts | 154° |
| 2026-05-07 21:30 | 53.63399 | 9.77677 | 5048 ft | 292 kts | 160° |
| 2026-05-07 21:31 | 53.61413 | 9.77888 | 5448 ft | 287 kts | 190° |
| 2026-05-07 21:31 | 53.59481 | 9.76914 | 6039 ft | 294 kts | 197° |
| 2026-05-07 21:31 | 53.57526 | 9.75778 | 6658 ft | 301 kts | 198° |
| 2026-05-07 21:31 | 53.55536 | 9.74601 | 7268 ft | 305 kts | 198° |
| 2026-05-07 21:32 | 53.53509 | 9.73479 | 7897 ft | 308 kts | 197° |
| 2026-05-07 21:32 | 53.51456 | 9.72389 | 8539 ft | 310 kts | 195° |
| 2026-05-07 21:32 | 53.49389 | 9.71337 | 9193 ft | 311 kts | 197° |
| 2026-05-07 21:32 | 53.47337 | 9.70213 | 9851 ft | 311 kts | 198° |
| 2026-05-07 21:33 | 53.45277 | 9.69082 | 10463 ft | 310 kts | 197° |
| 2026-05-07 21:33 | 53.43210 | 9.68049 | 11050 ft | 310 kts | 196° |
| 2026-05-07 21:33 | 53.41173 | 9.66998 | 11630 ft | 309 kts | 198° |
| 2026-05-07 21:33 | 53.39125 | 9.65876 | 12216 ft | 309 kts | 198° |
| 2026-05-07 21:34 | 53.37088 | 9.64747 | 12805 ft | 308 kts | 198° |
| 2026-05-07 21:34 | 53.35044 | 9.63666 | 13391 ft | 307 kts | 197° |
| 2026-05-07 21:34 | 53.32996 | 9.62651 | 13972 ft | 306 kts | 198° |
| 2026-05-07 21:34 | 53.30968 | 9.61567 | 14471 ft | 306 kts | 198° |
| 2026-05-07 21:35 | 53.29629 | 9.60841 | 14806 ft | 305 kts | 198° |
| 2026-05-07 21:35 | 53.27610 | 9.59737 | 15308 ft | 305 kts | 198° |
| 2026-05-07 21:35 | 53.25581 | 9.58689 | 15809 ft | 304 kts | 196° |
| 2026-05-07 21:35 | 53.23555 | 9.57668 | 16296 ft | 304 kts | 198° |
| 2026-05-07 21:36 | 53.21544 | 9.56592 | 16804 ft | 304 kts | 198° |
| 2026-05-07 21:36 | 53.19532 | 9.55507 | 17292 ft | 303 kts | 198° |
| 2026-05-07 21:36 | 53.17523 | 9.54434 | 17790 ft | 303 kts | 197° |
| 2026-05-07 21:36 | 53.15506 | 9.53440 | 18285 ft | 302 kts | 197° |
| 2026-05-07 21:37 | 53.13455 | 9.52375 | 18335 ft | 316 kts | 198° |
| 2026-05-07 21:37 | 53.11342 | 9.51263 | 18086 ft | 317 kts | 198° |
| 2026-05-07 21:37 | 53.09247 | 9.50153 | 17672 ft | 315 kts | 198° |
| 2026-05-07 21:37 | 53.07159 | 9.49045 | 17269 ft | 313 kts | 198° |
| 2026-05-07 21:38 | 53.05087 | 9.47945 | 16859 ft | 311 kts | 198° |
| 2026-05-07 21:38 | 53.03052 | 9.46883 | 16468 ft | 309 kts | 197° |
| 2026-05-07 21:38 | 53.00992 | 9.45881 | 16077 ft | 308 kts | 197° |
| 2026-05-07 21:38 | 52.98918 | 9.44848 | 15685 ft | 306 kts | 194° |
| 2026-05-07 21:39 | 52.96853 | 9.44247 | 15311 ft | 305 kts | 187° |
| 2026-05-07 21:39 | 52.94746 | 9.43876 | 14948 ft | 304 kts | 186° |
| 2026-05-07 21:39 | 52.92645 | 9.43544 | 14589 ft | 302 kts | 186° |
| 2026-05-07 21:39 | 52.90556 | 9.43207 | 14236 ft | 301 kts | 187° |
| 2026-05-07 21:40 | 52.88485 | 9.42723 | 13889 ft | 299 kts | 189° |
| 2026-05-07 21:40 | 52.86429 | 9.42209 | 13521 ft | 298 kts | 187° |
| 2026-05-07 21:40 | 52.84374 | 9.41837 | 13152 ft | 296 kts | 186° |
| 2026-05-07 21:40 | 52.82335 | 9.41431 | 12793 ft | 294 kts | 187° |
| 2026-05-07 21:41 | 52.80308 | 9.40986 | 12440 ft | 293 kts | 188° |
| 2026-05-07 21:41 | 52.78287 | 9.40531 | 12099 ft | 291 kts | 188° |
| 2026-05-07 21:41 | 52.76284 | 9.40074 | 11760 ft | 290 kts | 187° |
| 2026-05-07 21:41 | 52.74286 | 9.39691 | 11429 ft | 289 kts | 186° |
| 2026-05-07 21:42 | 52.72291 | 9.39290 | 11102 ft | 288 kts | 187° |
| 2026-05-07 21:42 | 52.70312 | 9.38847 | 10784 ft | 286 kts | 188° |
| 2026-05-07 21:42 | 52.68351 | 9.38335 | 10478 ft | 285 kts | 189° |
| 2026-05-07 21:42 | 52.66402 | 9.37780 | 10178 ft | 283 kts | 189° |
| 2026-05-07 21:43 | 52.64465 | 9.37217 | 9864 ft | 282 kts | 190° |
| 2026-05-07 21:43 | 52.62535 | 9.36647 | 9539 ft | 281 kts | 190° |
| 2026-05-07 21:43 | 52.60637 | 9.36076 | 9233 ft | 280 kts | 190° |
| 2026-05-07 21:43 | 52.58730 | 9.35464 | 8917 ft | 279 kts | 194° |
| 2026-05-07 21:44 | 52.56991 | 9.34083 | 8588 ft | 279 kts | 212° |
| 2026-05-07 21:44 | 52.55374 | 9.32316 | 8267 ft | 278 kts | 213° |
| 2026-05-07 21:44 | 52.53766 | 9.30543 | 7983 ft | 278 kts | 213° |
| 2026-05-07 21:44 | 52.52178 | 9.28751 | 7712 ft | 277 kts | 213° |
| 2026-05-07 21:45 | 52.50598 | 9.26942 | 7444 ft | 276 kts | 214° |
| 2026-05-07 21:45 | 52.48976 | 9.25310 | 7156 ft | 273 kts | 199° |
| 2026-05-07 21:45 | 52.47122 | 9.24991 | 6881 ft | 268 kts | 168° |
| 2026-05-07 21:45 | 52.45450 | 9.26213 | 6617 ft | 263 kts | 139° |
| 2026-05-07 21:46 | 52.44240 | 9.28429 | 6348 ft | 261 kts | 126° |
| 2026-05-07 21:46 | 52.43273 | 9.30868 | 6089 ft | 258 kts | 109° |
| 2026-05-07 21:46 | 52.43067 | 9.33650 | 5487 ft | 238 kts | 82° |
| 2026-05-07 21:46 | 52.43665 | 9.36304 | 4551 ft | 258 kts | 65° |
| 2026-05-07 21:47 | 52.44408 | 9.38884 | 4513 ft | 235 kts | 66° |
| 2026-05-07 21:47 | 52.45107 | 9.41228 | 3705 ft | 223 kts | 65° |
| 2026-05-07 21:47 | 52.45785 | 9.43390 | 3321 ft | 202 kts | 64° |
| 2026-05-07 21:47 | 52.46403 | 9.45292 | 3081 ft | 175 kts | 64° |
| 2026-05-07 21:48 | 52.46735 | 9.47035 | 2836 ft | 158 kts | 91° |
| 2026-05-07 21:48 | 52.46587 | 9.48881 | 2556 ft | 171 kts | 100° |
| 2026-05-07 21:48 | 52.46350 | 9.50859 | 2170 ft | 179 kts | 101° |
| 2026-05-07 21:48 | 52.46125 | 9.52852 | 1989 ft | 174 kts | 99° |
| 2026-05-07 21:49 | 52.45940 | 9.54787 | 1859 ft | 167 kts | 98° |
| 2026-05-07 21:49 | 52.45757 | 9.56693 | 1565 ft | 169 kts | 98° |
| 2026-05-07 21:49 | 52.45697 | 9.58599 | 1305 ft | 167 kts | 90° |
| 2026-05-07 21:49 | 52.45708 | 9.60493 | 1075 ft | 165 kts | 90° |
| 2026-05-07 21:50 | 52.45672 | 9.62369 | 843 ft | 164 kts | 94° |
| 2026-05-07 21:50 | 52.45596 | 9.64222 | 603 ft | 166 kts | 93° |
| 2026-05-07 21:50 | 52.45548 | 9.66050 | 450 ft | 150 kts | 92° |
| 2026-05-07 21:50 | 52.45504 | 9.67686 | 243 ft | 137 kts | 91° |
| 2026-05-07 21:51 | 52.45459 | 9.69120 | 198 ft | 113 kts | 92° |
| 2026-05-07 21:51 | 52.45427 | 9.70165 | 181 ft | 59 kts | 92° |
| 2026-05-07 21:51 | 52.45422 | 9.70608 | 187 ft | 20 kts | 75° |
| 2026-05-07 21:51 | 52.45516 | 9.70669 | 187 ft | 13 kts | 1° |
| 2026-05-07 21:52 | 52.45526 | 9.70670 | 187 ft | 0 kts | 2° |
| 2026-05-07 21:52 | 52.45537 | 9.70669 | 187 ft | 6 kts | 355° |
| 2026-05-07 21:52 | 52.45580 | 9.70581 | 187 ft | 16 kts | 275° |
| 2026-05-07 21:53 | 52.45588 | 9.70345 | 185 ft | 24 kts | 274° |
| 2026-05-07 21:53 | 52.45598 | 9.70019 | 184 ft | 34 kts | 272° |
| 2026-05-07 21:53 | 52.45609 | 9.69583 | 184 ft | 43 kts | 272° |
| 2026-05-07 21:53 | 52.45650 | 9.69149 | 182 ft | 29 kts | 329° |
| 2026-05-07 21:54 | 52.45799 | 9.69026 | 179 ft | 24 kts | 267° |
| 2026-05-07 21:54 | 52.45775 | 9.68838 | 180 ft | 1 kts | 197° |
| 2026-05-07 21:54 | 52.45742 | 9.68834 | 180 ft | 11 kts | 182° |
| 2026-05-07 21:54 | 52.45709 | 9.68833 | 181 ft | 0 kts | 181° |